Union, Kentucky
Current Conditions -  °F | °C
As of 3:52 AM on Thursday 23 Oct 2014 (Local Time) from KCVG Reporting Station
Overcast Overcast  
Wind Chill: 47°   Ceiling: 2700
Heat Index: 47°   Visibility: 10mi
Dew Point: 40°   Wind: 3mph
Humidity: 77%   Direction: 360°N
Pressure: 30.26"   Gusts: NA
Location:  38.95°N, 84.68°W
Report Text: KCVG 230752Z 36003KT 10SM OVC027 08/04 A3026 RMK AO2 SLP245 T00830044
Loading
Personal Weather Stations






























Interactive Weather Map
Tropical Storm Tracking
New forecast layout! Learn more

10-Day Weather Forecast

Advertisements
Track Severe Weather on mobile